AFR63NP EKCH-LFPG
Flight info
| Callsign | AFR63NP |
|---|---|
| Flight time | 1h 33m |
| Altitude | 32000 |
| Route | NEXEN T503 GIMRU DCT MICOS DCT NVO DCT IDOSA UN857 TOLVU DCT RAPOR DCT VEDUS |
| Aircraft | A320/M-SDE2E3FGIJ1RWY/HB1 |
Departure
| Time | 2026-05-01 10:04 |
|---|---|
| Airport | Copenhagen Kastrup Airport (EKCH) |
Arrival
| Time | 2026-05-01 11:37 |
|---|---|
| Airport | Charles de Gaulle International Airport (LFPG) |
| Time | Latitude | Longitude | Altitude | Speed | Heading |
|---|---|---|---|---|---|
| 2026-05-01 09:26 | 55.62810 | 12.64223 | 26 ft | 0 kts | 123° |
| 2026-05-01 09:53 | 55.62810 | 12.64222 | 25 ft | 0 kts | 124° |
| 2026-05-01 09:53 | 55.62818 | 12.64201 | 25 ft | 2 kts | 121° |
| 2026-05-01 09:53 | 55.62826 | 12.64179 | 25 ft | 2 kts | 123° |
| 2026-05-01 09:54 | 55.62834 | 12.64157 | 25 ft | 2 kts | 122° |
| 2026-05-01 09:54 | 55.62842 | 12.64134 | 25 ft | 2 kts | 101° |
| 2026-05-01 09:54 | 55.62840 | 12.64108 | 26 ft | 2 kts | 63° |
| 2026-05-01 09:54 | 55.62833 | 12.64084 | 25 ft | 2 kts | 70° |
| 2026-05-01 09:55 | 55.62828 | 12.64060 | 25 ft | 2 kts | 67° |
| 2026-05-01 09:55 | 55.62823 | 12.64035 | 25 ft | 2 kts | 68° |
| 2026-05-01 09:55 | 55.62819 | 12.64010 | 25 ft | 2 kts | 95° |
| 2026-05-01 09:55 | 55.62822 | 12.63984 | 26 ft | 2 kts | 107° |
| 2026-05-01 09:56 | 55.62826 | 12.63959 | 25 ft | 2 kts | 102° |
| 2026-05-01 09:56 | 55.62829 | 12.63932 | 25 ft | 2 kts | 104° |
| 2026-05-01 09:56 | 55.62833 | 12.63908 | 26 ft | 1 kts | 103° |
| 2026-05-01 09:56 | 55.62833 | 12.63907 | 26 ft | 0 kts | 103° |
| 2026-05-01 09:58 | 55.62832 | 12.63912 | 25 ft | 1 kts | 107° |
| 2026-05-01 09:58 | 55.62821 | 12.63941 | 25 ft | 5 kts | 137° |
| 2026-05-01 09:59 | 55.62767 | 12.63936 | 25 ft | 10 kts | 200° |
| 2026-05-01 09:59 | 55.62703 | 12.63876 | 25 ft | 10 kts | 212° |
| 2026-05-01 09:59 | 55.62640 | 12.63891 | 25 ft | 10 kts | 133° |
| 2026-05-01 09:59 | 55.62599 | 12.63995 | 25 ft | 10 kts | 123° |
| 2026-05-01 10:00 | 55.62557 | 12.64111 | 25 ft | 11 kts | 123° |
| 2026-05-01 10:00 | 55.62510 | 12.64239 | 25 ft | 13 kts | 123° |
| 2026-05-01 10:00 | 55.62453 | 12.64377 | 25 ft | 14 kts | 128° |
| 2026-05-01 10:00 | 55.62386 | 12.64448 | 25 ft | 8 kts | 188° |
| 2026-05-01 10:01 | 55.62329 | 12.64423 | 25 ft | 9 kts | 195° |
| 2026-05-01 10:01 | 55.62261 | 12.64389 | 25 ft | 11 kts | 197° |
| 2026-05-01 10:01 | 55.62177 | 12.64334 | 25 ft | 14 kts | 206° |
| 2026-05-01 10:01 | 55.62083 | 12.64244 | 25 ft | 16 kts | 205° |
| 2026-05-01 10:02 | 55.61977 | 12.64161 | 25 ft | 14 kts | 207° |
| 2026-05-01 10:02 | 55.61896 | 12.64093 | 25 ft | 13 kts | 201° |
| 2026-05-01 10:02 | 55.61804 | 12.64061 | 25 ft | 13 kts | 180° |
| 2026-05-01 10:02 | 55.61705 | 12.64086 | 25 ft | 14 kts | 176° |
| 2026-05-01 10:03 | 55.61618 | 12.64061 | 25 ft | 6 kts | 219° |
| 2026-05-01 10:03 | 55.61611 | 12.64051 | 25 ft | 2 kts | 220° |
| 2026-05-01 10:03 | 55.61449 | 12.63802 | 26 ft | 73 kts | 221° |
| 2026-05-01 10:03 | 55.60856 | 12.62883 | 26 ft | 150 kts | 221° |
| 2026-05-01 10:04 | 55.59963 | 12.61493 | 453 ft | 178 kts | 221° |
| 2026-05-01 10:04 | 55.59063 | 12.60127 | 1370 ft | 175 kts | 223° |
| 2026-05-01 10:04 | 55.58143 | 12.58772 | 2308 ft | 172 kts | 224° |
| 2026-05-01 10:04 | 55.57259 | 12.57439 | 3017 ft | 171 kts | 222° |
| 2026-05-01 10:05 | 55.56285 | 12.56144 | 3560 ft | 181 kts | 219° |
| 2026-05-01 10:05 | 55.55203 | 12.54771 | 3985 ft | 197 kts | 218° |
| 2026-05-01 10:05 | 55.53990 | 12.53237 | 4413 ft | 215 kts | 218° |
| 2026-05-01 10:05 | 55.52694 | 12.51589 | 4782 ft | 239 kts | 218° |
| 2026-05-01 10:06 | 55.51301 | 12.49808 | 5272 ft | 257 kts | 217° |
| 2026-05-01 10:06 | 55.49820 | 12.47915 | 5872 ft | 269 kts | 216° |
| 2026-05-01 10:06 | 55.48307 | 12.45978 | 6685 ft | 273 kts | 216° |
| 2026-05-01 10:06 | 55.46774 | 12.44024 | 7439 ft | 277 kts | 216° |
| 2026-05-01 10:07 | 55.45209 | 12.42032 | 8191 ft | 282 kts | 216° |
| 2026-05-01 10:07 | 55.43629 | 12.40021 | 8951 ft | 287 kts | 216° |
| 2026-05-01 10:07 | 55.42009 | 12.37959 | 9666 ft | 291 kts | 217° |
| 2026-05-01 10:07 | 55.40366 | 12.35865 | 10444 ft | 294 kts | 217° |
| 2026-05-01 10:08 | 55.36952 | 12.31514 | 11440 ft | 321 kts | 215° |
| 2026-05-01 10:08 | 55.35112 | 12.29174 | 11967 ft | 330 kts | 215° |
| 2026-05-01 10:08 | 55.33240 | 12.26800 | 12652 ft | 334 kts | 216° |
| 2026-05-01 10:09 | 55.31373 | 12.24434 | 13317 ft | 337 kts | 216° |
| 2026-05-01 10:09 | 55.29459 | 12.22009 | 13968 ft | 341 kts | 216° |
| 2026-05-01 10:09 | 55.27424 | 12.19434 | 14661 ft | 344 kts | 216° |
| 2026-05-01 10:09 | 55.25346 | 12.16809 | 15353 ft | 347 kts | 216° |
| 2026-05-01 10:10 | 55.23378 | 12.14326 | 15979 ft | 350 kts | 216° |
| 2026-05-01 10:10 | 55.21389 | 12.11816 | 16571 ft | 352 kts | 216° |
| 2026-05-01 10:10 | 55.17397 | 12.06794 | 17707 ft | 359 kts | 216° |
| 2026-05-01 10:11 | 55.15387 | 12.04271 | 18257 ft | 362 kts | 216° |
| 2026-05-01 10:11 | 55.13332 | 12.01694 | 18798 ft | 365 kts | 216° |
| 2026-05-01 10:11 | 55.11240 | 11.99073 | 19351 ft | 368 kts | 216° |
| 2026-05-01 10:11 | 55.09031 | 11.96310 | 19920 ft | 370 kts | 216° |
| 2026-05-01 10:12 | 55.06798 | 11.93519 | 20472 ft | 373 kts | 215° |
| 2026-05-01 10:12 | 55.05291 | 11.91639 | 20826 ft | 375 kts | 215° |
| 2026-05-01 10:12 | 55.00226 | 11.85331 | 22016 ft | 381 kts | 215° |
| 2026-05-01 10:13 | 54.97912 | 11.82456 | 22528 ft | 384 kts | 215° |
| 2026-05-01 10:13 | 54.95587 | 11.79574 | 23027 ft | 387 kts | 215° |
| 2026-05-01 10:13 | 54.93395 | 11.76861 | 23493 ft | 389 kts | 215° |
| 2026-05-01 10:14 | 54.88952 | 11.71372 | 24403 ft | 394 kts | 215° |
| 2026-05-01 10:14 | 54.86736 | 11.68639 | 24833 ft | 396 kts | 215° |
| 2026-05-01 10:14 | 54.84481 | 11.65863 | 25250 ft | 399 kts | 215° |
| 2026-05-01 10:14 | 54.82216 | 11.63077 | 25647 ft | 401 kts | 215° |
| 2026-05-01 10:15 | 54.79936 | 11.60277 | 26045 ft | 404 kts | 215° |
| 2026-05-01 10:15 | 54.77650 | 11.57472 | 26434 ft | 406 kts | 215° |
| 2026-05-01 10:15 | 54.75315 | 11.54613 | 26807 ft | 409 kts | 215° |
| 2026-05-01 10:15 | 54.72929 | 11.51696 | 27183 ft | 411 kts | 215° |
| 2026-05-01 10:16 | 54.70582 | 11.48830 | 27546 ft | 414 kts | 215° |
| 2026-05-01 10:16 | 54.68232 | 11.45964 | 27891 ft | 416 kts | 215° |
| 2026-05-01 10:16 | 54.63487 | 11.40189 | 28569 ft | 421 kts | 215° |
| 2026-05-01 10:17 | 54.61107 | 11.37297 | 28896 ft | 423 kts | 215° |
| 2026-05-01 10:17 | 54.56290 | 11.31461 | 29526 ft | 427 kts | 214° |
| 2026-05-01 10:17 | 54.53837 | 11.28496 | 29824 ft | 429 kts | 214° |
| 2026-05-01 10:18 | 54.48940 | 11.22590 | 30400 ft | 433 kts | 214° |
| 2026-05-01 10:18 | 54.46481 | 11.19632 | 30675 ft | 435 kts | 214° |
| 2026-05-01 10:18 | 54.43992 | 11.16640 | 30939 ft | 437 kts | 214° |
| 2026-05-01 10:19 | 54.41537 | 11.13693 | 31190 ft | 438 kts | 214° |
| 2026-05-01 10:19 | 54.39024 | 11.10681 | 31440 ft | 440 kts | 214° |
| 2026-05-01 10:19 | 54.36519 | 11.07684 | 31675 ft | 442 kts | 214° |
| 2026-05-01 10:20 | 54.31486 | 11.01663 | 32131 ft | 445 kts | 215° |
| 2026-05-01 10:20 | 54.29007 | 10.98431 | 32341 ft | 447 kts | 218° |
| 2026-05-01 10:20 | 54.24214 | 10.91776 | 32391 ft | 447 kts | 218° |
| 2026-05-01 10:21 | 54.16980 | 10.81769 | 32395 ft | 447 kts | 218° |
| 2026-05-01 10:22 | 54.09748 | 10.71811 | 32401 ft | 446 kts | 218° |
| 2026-05-01 10:23 | 54.02513 | 10.61899 | 32398 ft | 446 kts | 218° |
| 2026-05-01 10:23 | 53.95292 | 10.52051 | 32391 ft | 446 kts | 218° |
| 2026-05-01 10:24 | 53.85632 | 10.38947 | 32392 ft | 446 kts | 218° |
| 2026-05-01 10:25 | 53.75955 | 10.25901 | 32385 ft | 446 kts | 218° |
| 2026-05-01 10:26 | 53.71131 | 10.19425 | 32385 ft | 446 kts | 218° |
| 2026-05-01 10:27 | 53.61430 | 10.06463 | 32389 ft | 445 kts | 218° |
| 2026-05-01 10:28 | 53.54165 | 9.96806 | 32386 ft | 446 kts | 218° |
| 2026-05-01 10:28 | 53.46890 | 9.87181 | 32387 ft | 446 kts | 218° |
| 2026-05-01 10:29 | 53.39578 | 9.77550 | 32384 ft | 446 kts | 218° |
| 2026-05-01 10:30 | 53.29838 | 9.64788 | 32374 ft | 446 kts | 218° |
| 2026-05-01 10:31 | 53.20113 | 9.52119 | 32376 ft | 446 kts | 218° |
| 2026-05-01 10:32 | 53.12767 | 9.42600 | 32375 ft | 447 kts | 218° |
| 2026-05-01 10:33 | 53.02970 | 9.29973 | 32362 ft | 447 kts | 217° |
| 2026-05-01 10:34 | 52.95630 | 9.20556 | 32357 ft | 446 kts | 217° |
| 2026-05-01 10:34 | 52.90718 | 9.14279 | 32353 ft | 446 kts | 217° |
| 2026-05-01 10:35 | 52.83355 | 9.04907 | 32353 ft | 447 kts | 217° |
| 2026-05-01 10:35 | 52.78445 | 8.98681 | 32354 ft | 448 kts | 217° |
| 2026-05-01 10:36 | 52.71028 | 8.89308 | 32355 ft | 449 kts | 217° |
| 2026-05-01 10:37 | 52.66114 | 8.83118 | 32354 ft | 448 kts | 217° |
| 2026-05-01 10:37 | 52.58702 | 8.73818 | 32354 ft | 449 kts | 217° |
| 2026-05-01 10:38 | 52.53751 | 8.67628 | 32355 ft | 449 kts | 217° |
| 2026-05-01 10:38 | 52.48786 | 8.61441 | 32357 ft | 449 kts | 218° |
| 2026-05-01 10:39 | 52.43796 | 8.55242 | 32357 ft | 450 kts | 218° |
| 2026-05-01 10:39 | 52.38837 | 8.49096 | 32353 ft | 450 kts | 218° |
| 2026-05-01 10:40 | 52.33862 | 8.42950 | 32352 ft | 449 kts | 218° |
| 2026-05-01 10:40 | 52.28906 | 8.36841 | 32349 ft | 450 kts | 218° |
| 2026-05-01 10:41 | 52.23897 | 8.30685 | 32347 ft | 450 kts | 217° |
| 2026-05-01 10:42 | 52.16412 | 8.21524 | 32339 ft | 451 kts | 217° |
| 2026-05-01 10:42 | 52.11416 | 8.15433 | 32337 ft | 451 kts | 217° |
| 2026-05-01 10:43 | 52.06421 | 8.09359 | 32332 ft | 451 kts | 217° |
| 2026-05-01 10:43 | 52.01406 | 8.03275 | 32331 ft | 451 kts | 217° |
| 2026-05-01 10:44 | 51.96393 | 7.97210 | 32335 ft | 451 kts | 217° |
| 2026-05-01 10:44 | 51.91393 | 7.91181 | 32334 ft | 451 kts | 217° |
| 2026-05-01 10:45 | 51.86379 | 7.85153 | 32333 ft | 451 kts | 217° |
| 2026-05-01 10:45 | 51.81347 | 7.79120 | 32329 ft | 451 kts | 217° |
| 2026-05-01 10:46 | 51.76313 | 7.73103 | 32326 ft | 450 kts | 217° |
| 2026-05-01 10:46 | 51.71318 | 7.67148 | 32324 ft | 450 kts | 217° |
| 2026-05-01 10:47 | 51.66282 | 7.61160 | 32326 ft | 450 kts | 217° |
| 2026-05-01 10:47 | 51.61260 | 7.55205 | 32325 ft | 450 kts | 217° |
| 2026-05-01 10:48 | 51.56238 | 7.49269 | 32323 ft | 450 kts | 217° |
| 2026-05-01 10:48 | 51.51230 | 7.43364 | 32320 ft | 449 kts | 217° |
| 2026-05-01 10:49 | 51.46215 | 7.37469 | 32319 ft | 449 kts | 217° |
| 2026-05-01 10:49 | 51.41164 | 7.31546 | 32315 ft | 449 kts | 216° |
| 2026-05-01 10:50 | 51.36137 | 7.25669 | 32314 ft | 449 kts | 216° |
| 2026-05-01 10:50 | 51.31122 | 7.19823 | 32312 ft | 449 kts | 216° |
| 2026-05-01 10:51 | 51.26107 | 7.13994 | 32308 ft | 448 kts | 216° |
| 2026-05-01 10:51 | 51.21072 | 7.08156 | 32308 ft | 448 kts | 216° |
| 2026-05-01 10:52 | 51.16021 | 7.02314 | 32306 ft | 448 kts | 216° |
| 2026-05-01 10:52 | 51.11001 | 6.96523 | 32301 ft | 448 kts | 216° |
| 2026-05-01 10:53 | 51.05966 | 6.90735 | 32290 ft | 448 kts | 216° |
| 2026-05-01 10:53 | 51.00960 | 6.84995 | 32286 ft | 447 kts | 216° |
| 2026-05-01 10:54 | 50.95889 | 6.79196 | 32286 ft | 447 kts | 216° |
| 2026-05-01 10:54 | 50.90884 | 6.73487 | 32286 ft | 447 kts | 216° |
| 2026-05-01 10:55 | 50.85839 | 6.67761 | 32287 ft | 447 kts | 215° |
| 2026-05-01 10:55 | 50.80557 | 6.62617 | 32288 ft | 447 kts | 208° |
| 2026-05-01 10:56 | 50.74999 | 6.58413 | 32292 ft | 446 kts | 204° |
| 2026-05-01 10:56 | 50.69362 | 6.54342 | 32293 ft | 446 kts | 204° |
| 2026-05-01 10:57 | 50.63728 | 6.50277 | 32293 ft | 445 kts | 204° |
| 2026-05-01 10:57 | 50.58120 | 6.46239 | 32292 ft | 445 kts | 204° |
| 2026-05-01 10:58 | 50.52538 | 6.42229 | 32285 ft | 445 kts | 204° |
| 2026-05-01 10:58 | 50.46914 | 6.38200 | 32283 ft | 444 kts | 204° |
| 2026-05-01 10:59 | 50.41301 | 6.34189 | 32277 ft | 444 kts | 204° |
| 2026-05-01 10:59 | 50.35690 | 6.30189 | 32274 ft | 444 kts | 204° |
| 2026-05-01 11:00 | 50.30079 | 6.26201 | 32272 ft | 444 kts | 204° |
| 2026-05-01 11:00 | 50.24488 | 6.22236 | 32269 ft | 444 kts | 203° |
| 2026-05-01 11:01 | 50.18906 | 6.18289 | 32272 ft | 443 kts | 203° |
| 2026-05-01 11:01 | 50.13280 | 6.14321 | 32271 ft | 443 kts | 203° |
| 2026-05-01 11:02 | 50.07701 | 6.10396 | 32269 ft | 442 kts | 204° |
| 2026-05-01 11:02 | 50.02106 | 6.06468 | 32267 ft | 443 kts | 203° |
| 2026-05-01 11:03 | 49.96503 | 6.02545 | 32265 ft | 443 kts | 203° |
| 2026-05-01 11:03 | 49.90897 | 5.98630 | 32261 ft | 442 kts | 203° |
| 2026-05-01 11:04 | 49.85327 | 5.94754 | 32262 ft | 442 kts | 203° |
| 2026-05-01 11:04 | 49.79859 | 5.90493 | 32258 ft | 442 kts | 212° |
| 2026-05-01 11:05 | 49.75222 | 5.84313 | 32263 ft | 443 kts | 228° |
| 2026-05-01 11:05 | 49.71801 | 5.76424 | 32260 ft | 445 kts | 244° |
| 2026-05-01 11:06 | 49.69569 | 5.67532 | 32255 ft | 446 kts | 250° |
| 2026-05-01 11:06 | 49.67524 | 5.58566 | 32249 ft | 445 kts | 250° |
| 2026-05-01 11:07 | 49.64388 | 5.45102 | 32242 ft | 445 kts | 249° |
| 2026-05-01 11:07 | 49.62295 | 5.36205 | 32237 ft | 445 kts | 250° |
| 2026-05-01 11:08 | 49.60540 | 5.27044 | 32237 ft | 446 kts | 256° |
| 2026-05-01 11:09 | 49.59268 | 5.12921 | 32229 ft | 446 kts | 266° |
| 2026-05-01 11:09 | 49.59247 | 5.03440 | 32213 ft | 447 kts | 270° |
| 2026-05-01 11:10 | 49.59350 | 4.93761 | 30741 ft | 458 kts | 270° |
| 2026-05-01 11:10 | 49.59394 | 4.88864 | 29850 ft | 460 kts | 269° |
| 2026-05-01 11:10 | 49.59432 | 4.83983 | 29048 ft | 459 kts | 269° |
| 2026-05-01 11:10 | 49.59467 | 4.79108 | 28275 ft | 458 kts | 269° |
| 2026-05-01 11:11 | 49.59497 | 4.74280 | 27836 ft | 449 kts | 269° |
| 2026-05-01 11:11 | 49.59524 | 4.69473 | 27809 ft | 448 kts | 269° |
| 2026-05-01 11:11 | 49.59547 | 4.64673 | 27763 ft | 448 kts | 269° |
| 2026-05-01 11:11 | 49.59566 | 4.59930 | 27683 ft | 448 kts | 269° |
| 2026-05-01 11:12 | 49.59586 | 4.55105 | 27541 ft | 448 kts | 269° |
| 2026-05-01 11:12 | 49.59604 | 4.50365 | 27248 ft | 450 kts | 269° |
| 2026-05-01 11:12 | 49.59618 | 4.45538 | 26680 ft | 451 kts | 269° |
| 2026-05-01 11:12 | 49.59631 | 4.40742 | 25980 ft | 451 kts | 269° |
| 2026-05-01 11:13 | 49.59643 | 4.35944 | 25469 ft | 446 kts | 269° |
| 2026-05-01 11:13 | 49.59653 | 4.31196 | 24953 ft | 443 kts | 268° |
| 2026-05-01 11:13 | 49.59660 | 4.26477 | 24421 ft | 439 kts | 268° |
| 2026-05-01 11:13 | 49.59666 | 4.21808 | 23894 ft | 435 kts | 268° |
| 2026-05-01 11:14 | 49.59668 | 4.17199 | 23371 ft | 431 kts | 268° |
| 2026-05-01 11:14 | 49.59667 | 4.12605 | 22839 ft | 427 kts | 267° |
| 2026-05-01 11:14 | 49.59358 | 4.08178 | 22310 ft | 419 kts | 254° |
| 2026-05-01 11:14 | 49.58416 | 4.03954 | 21794 ft | 410 kts | 242° |
| 2026-05-01 11:15 | 49.57012 | 4.00230 | 21295 ft | 404 kts | 234° |
| 2026-05-01 11:15 | 49.55476 | 3.96631 | 20777 ft | 400 kts | 233° |
| 2026-05-01 11:15 | 49.53959 | 3.93115 | 20268 ft | 397 kts | 234° |
| 2026-05-01 11:15 | 49.52445 | 3.89581 | 19757 ft | 393 kts | 234° |
| 2026-05-01 11:16 | 49.50969 | 3.86109 | 19253 ft | 390 kts | 234° |
| 2026-05-01 11:16 | 49.49493 | 3.82621 | 18744 ft | 387 kts | 234° |
| 2026-05-01 11:16 | 49.48151 | 3.79075 | 18234 ft | 387 kts | 241° |
| 2026-05-01 11:16 | 49.47101 | 3.75289 | 17726 ft | 386 kts | 248° |
| 2026-05-01 11:17 | 49.46344 | 3.71373 | 17220 ft | 385 kts | 252° |
| 2026-05-01 11:17 | 49.45675 | 3.67377 | 16706 ft | 384 kts | 253° |
| 2026-05-01 11:17 | 49.45031 | 3.63446 | 16199 ft | 382 kts | 253° |
| 2026-05-01 11:17 | 49.44379 | 3.59527 | 16041 ft | 382 kts | 253° |
| 2026-05-01 11:18 | 49.43706 | 3.55546 | 16057 ft | 384 kts | 253° |
| 2026-05-01 11:18 | 49.43033 | 3.51582 | 16045 ft | 384 kts | 253° |
| 2026-05-01 11:18 | 49.42352 | 3.47640 | 15554 ft | 385 kts | 251° |
| 2026-05-01 11:18 | 49.41537 | 3.43774 | 15036 ft | 381 kts | 247° |
| 2026-05-01 11:19 | 49.40577 | 3.40044 | 14991 ft | 375 kts | 245° |
| 2026-05-01 11:19 | 49.39588 | 3.36344 | 15021 ft | 376 kts | 245° |
| 2026-05-01 11:19 | 49.38589 | 3.32621 | 15045 ft | 376 kts | 244° |
| 2026-05-01 11:19 | 49.37606 | 3.28961 | 15070 ft | 376 kts | 244° |
| 2026-05-01 11:20 | 49.36616 | 3.25280 | 15094 ft | 376 kts | 244° |
| 2026-05-01 11:20 | 49.35609 | 3.21540 | 15116 ft | 376 kts | 244° |
| 2026-05-01 11:20 | 49.34619 | 3.17861 | 15135 ft | 376 kts | 244° |
| 2026-05-01 11:20 | 49.33618 | 3.14153 | 15156 ft | 376 kts | 244° |
| 2026-05-01 11:21 | 49.32626 | 3.10483 | 15178 ft | 376 kts | 244° |
| 2026-05-01 11:21 | 49.31632 | 3.06807 | 15195 ft | 376 kts | 244° |
| 2026-05-01 11:21 | 49.30630 | 3.03112 | 15202 ft | 376 kts | 244° |
| 2026-05-01 11:21 | 49.29621 | 2.99400 | 15200 ft | 376 kts | 244° |
| 2026-05-01 11:22 | 49.28616 | 2.95703 | 15196 ft | 376 kts | 244° |
| 2026-05-01 11:22 | 49.27623 | 2.92056 | 15187 ft | 376 kts | 244° |
| 2026-05-01 11:22 | 49.26620 | 2.88378 | 14932 ft | 373 kts | 244° |
| 2026-05-01 11:22 | 49.25606 | 2.84675 | 14094 ft | 380 kts | 244° |
| 2026-05-01 11:23 | 49.24598 | 2.80996 | 13309 ft | 383 kts | 245° |
| 2026-05-01 11:23 | 49.23566 | 2.77232 | 12709 ft | 380 kts | 245° |
| 2026-05-01 11:23 | 49.22551 | 2.73530 | 12304 ft | 371 kts | 245° |
| 2026-05-01 11:23 | 49.21582 | 2.69992 | 12210 ft | 354 kts | 245° |
| 2026-05-01 11:24 | 49.20654 | 2.66608 | 12100 ft | 339 kts | 244° |
| 2026-05-01 11:24 | 49.19756 | 2.63348 | 11898 ft | 327 kts | 244° |
| 2026-05-01 11:24 | 49.18237 | 2.57082 | 11509 ft | 309 kts | 256° |
| 2026-05-01 11:25 | 49.17990 | 2.53846 | 11308 ft | 302 kts | 265° |
| 2026-05-01 11:25 | 49.17870 | 2.47531 | 10628 ft | 297 kts | 266° |
| 2026-05-01 11:25 | 49.17816 | 2.44385 | 10260 ft | 295 kts | 266° |
| 2026-05-01 11:26 | 49.17754 | 2.41268 | 9897 ft | 293 kts | 266° |
| 2026-05-01 11:26 | 49.17630 | 2.35120 | 9171 ft | 289 kts | 267° |
| 2026-05-01 11:26 | 49.17593 | 2.32086 | 8819 ft | 288 kts | 267° |
| 2026-05-01 11:27 | 49.17558 | 2.29041 | 8453 ft | 285 kts | 267° |
| 2026-05-01 11:27 | 49.17522 | 2.26011 | 8090 ft | 284 kts | 267° |
| 2026-05-01 11:27 | 49.17485 | 2.23036 | 7792 ft | 279 kts | 266° |
| 2026-05-01 11:27 | 49.17448 | 2.20145 | 7621 ft | 270 kts | 266° |
| 2026-05-01 11:28 | 49.17411 | 2.17316 | 7455 ft | 261 kts | 266° |
| 2026-05-01 11:28 | 49.17372 | 2.14589 | 7290 ft | 253 kts | 266° |
| 2026-05-01 11:28 | 49.17125 | 2.11981 | 7056 ft | 244 kts | 244° |
| 2026-05-01 11:29 | 49.14658 | 2.09015 | 6400 ft | 234 kts | 188° |
| 2026-05-01 11:29 | 49.13039 | 2.08761 | 6080 ft | 233 kts | 182° |
| 2026-05-01 11:29 | 49.09827 | 2.08603 | 5449 ft | 231 kts | 174° |
| 2026-05-01 11:30 | 49.08281 | 2.09265 | 5128 ft | 230 kts | 153° |
| 2026-05-01 11:30 | 49.06920 | 2.10460 | 4904 ft | 229 kts | 148° |
| 2026-05-01 11:30 | 49.05577 | 2.11782 | 4685 ft | 228 kts | 147° |
| 2026-05-01 11:30 | 49.04266 | 2.13108 | 4459 ft | 224 kts | 147° |
| 2026-05-01 11:31 | 49.03005 | 2.14444 | 4232 ft | 219 kts | 139° |
| 2026-05-01 11:31 | 49.01995 | 2.16126 | 4021 ft | 214 kts | 129° |
| 2026-05-01 11:31 | 49.01187 | 2.17969 | 3944 ft | 203 kts | 114° |
| 2026-05-01 11:31 | 49.00834 | 2.20001 | 3952 ft | 203 kts | 97° |
| 2026-05-01 11:32 | 49.00798 | 2.22150 | 3988 ft | 200 kts | 88° |
| 2026-05-01 11:32 | 49.00935 | 2.24202 | 3938 ft | 194 kts | 84° |
| 2026-05-01 11:32 | 49.01093 | 2.26228 | 3671 ft | 190 kts | 85° |
| 2026-05-01 11:32 | 49.01226 | 2.28228 | 3416 ft | 189 kts | 86° |
| 2026-05-01 11:33 | 49.01337 | 2.30218 | 3166 ft | 189 kts | 86° |
| 2026-05-01 11:33 | 49.01437 | 2.32172 | 2913 ft | 184 kts | 86° |
| 2026-05-01 11:33 | 49.01530 | 2.34085 | 2672 ft | 179 kts | 87° |
| 2026-05-01 11:33 | 49.01621 | 2.35952 | 2443 ft | 174 kts | 87° |
| 2026-05-01 11:34 | 49.01709 | 2.37730 | 2219 ft | 165 kts | 86° |
| 2026-05-01 11:34 | 49.01794 | 2.39399 | 2026 ft | 152 kts | 87° |
| 2026-05-01 11:34 | 49.01873 | 2.40953 | 1831 ft | 140 kts | 87° |
| 2026-05-01 11:34 | 49.01948 | 2.42411 | 1657 ft | 138 kts | 87° |
| 2026-05-01 11:35 | 49.02020 | 2.43848 | 1494 ft | 137 kts | 87° |
| 2026-05-01 11:35 | 49.02098 | 2.45299 | 1322 ft | 137 kts | 87° |
| 2026-05-01 11:35 | 49.02175 | 2.46753 | 1141 ft | 136 kts | 86° |
| 2026-05-01 11:35 | 49.02246 | 2.48189 | 940 ft | 136 kts | 86° |
| 2026-05-01 11:36 | 49.02319 | 2.49611 | 775 ft | 136 kts | 86° |
| 2026-05-01 11:36 | 49.02398 | 2.51047 | 611 ft | 136 kts | 86° |
| 2026-05-01 11:36 | 49.02472 | 2.52490 | 435 ft | 135 kts | 86° |
| 2026-05-01 11:36 | 49.02542 | 2.53802 | 398 ft | 105 kts | 85° |
| 2026-05-01 11:37 | 49.02589 | 2.54657 | 398 ft | 55 kts | 84° |
| 2026-05-01 11:37 | 49.02600 | 2.55141 | 398 ft | 39 kts | 99° |
| 2026-05-01 11:37 | 49.02536 | 2.55396 | 398 ft | 17 kts | 115° |
| 2026-05-01 11:37 | 49.02476 | 2.55562 | 398 ft | 18 kts | 133° |
| 2026-05-01 11:38 | 49.02360 | 2.55621 | 398 ft | 18 kts | 174° |
| 2026-05-01 11:38 | 49.02234 | 2.55637 | 398 ft | 18 kts | 175° |
| 2026-05-01 11:38 | 49.02107 | 2.55652 | 398 ft | 18 kts | 175° |
| 2026-05-01 11:38 | 49.01978 | 2.55666 | 398 ft | 18 kts | 175° |
| 2026-05-01 11:39 | 49.01902 | 2.55708 | 398 ft | 11 kts | 119° |
| 2026-05-01 11:39 | 49.01898 | 2.55831 | 398 ft | 12 kts | 84° |
| 2026-05-01 11:39 | 49.01906 | 2.55969 | 398 ft | 13 kts | 85° |
| 2026-05-01 11:39 | 49.01913 | 2.56123 | 398 ft | 15 kts | 85° |
| 2026-05-01 11:40 | 49.01922 | 2.56290 | 398 ft | 16 kts | 85° |
| 2026-05-01 11:40 | 49.01931 | 2.56469 | 398 ft | 17 kts | 84° |
| 2026-05-01 11:40 | 49.01942 | 2.56654 | 398 ft | 18 kts | 85° |
| 2026-05-01 11:40 | 49.01953 | 2.56848 | 398 ft | 18 kts | 85° |
| 2026-05-01 11:41 | 49.01963 | 2.57048 | 398 ft | 19 kts | 85° |
| 2026-05-01 11:41 | 49.01974 | 2.57250 | 398 ft | 19 kts | 84° |
| 2026-05-01 11:41 | 49.01985 | 2.57454 | 398 ft | 18 kts | 84° |
| 2026-05-01 11:41 | 49.01995 | 2.57650 | 398 ft | 18 kts | 85° |
| 2026-05-01 11:42 | 49.01978 | 2.57839 | 398 ft | 17 kts | 116° |
| 2026-05-01 11:42 | 49.01890 | 2.57964 | 398 ft | 17 kts | 156° |
| 2026-05-01 11:42 | 49.01771 | 2.57994 | 398 ft | 17 kts | 175° |
| 2026-05-01 11:42 | 49.01653 | 2.58009 | 398 ft | 17 kts | 175° |
| 2026-05-01 11:43 | 49.01535 | 2.58024 | 398 ft | 16 kts | 174° |
| 2026-05-01 11:43 | 49.01418 | 2.58038 | 398 ft | 16 kts | 175° |
| 2026-05-01 11:43 | 49.01303 | 2.58053 | 399 ft | 16 kts | 175° |
| 2026-05-01 11:44 | 49.01075 | 2.58080 | 399 ft | 16 kts | 175° |
| 2026-05-01 11:44 | 49.00962 | 2.58095 | 398 ft | 15 kts | 174° |
| 2026-05-01 11:44 | 49.00866 | 2.58108 | 398 ft | 8 kts | 178° |
| 2026-05-01 11:44 | 49.00815 | 2.58074 | 398 ft | 8 kts | 219° |
| 2026-05-01 11:45 | 49.00773 | 2.58013 | 398 ft | 7 kts | 224° |
| 2026-05-01 11:45 | 49.00753 | 2.57983 | 398 ft | 2 kts | 224° |
| 2026-05-01 11:45 | 49.00744 | 2.57969 | 398 ft | 0 kts | 224° |
| 2026-05-01 11:45 | 49.00739 | 2.57962 | 398 ft | 0 kts | 224° |